Time;durP1;ratioP1;P1;durP2;ratioP2;P2;SDS_P1;SDS_P2;PMS_P1;PMS_P2;Temp;Humidity;BMP_temperature;BMP_pressure;BME280_temperature;BME280_humidity;BME280_pressure;Samples;Min_cycle;Max_cycle;Signal;HPM_P1;HPM_P2
2024/01/26 00:00:10;;;;;;;8.97;2.60;;;;;;;;;;5032479;28;20026;-68
2024/01/26 00:02:36;;;;;;;22.20;3.63;;;;;;;;;;5031041;28;20032;-69
2024/01/26 00:05:02;;;;;;;13.43;3.30;;;;;;;;;;5032084;28;20072;-66
2024/01/26 00:07:28;;;;;;;16.70;3.47;;;;;;;;;;5030890;28;20550;-70
2024/01/26 00:09:55;;;;;;;14.63;3.33;;;;;;;;;;5031998;28;20176;-67
2024/01/26 00:12:21;;;;;;;8.67;3.23;;;;;;;;;;5030958;28;20045;-67
2024/01/26 00:14:46;;;;;;;10.97;3.13;;;;;;;;;;5032451;28;20428;-69
2024/01/26 00:17:12;;;;;;;9.73;4.00;;;;;;;;;;5031046;28;20029;-67
2024/01/26 00:19:39;;;;;;;13.40;3.70;;;;;;;;;;5031241;28;20026;-68
2024/01/26 00:22:06;;;;;;;9.47;2.90;;;;;;;;;;5030865;28;20029;-67
2024/01/26 00:24:31;;;;;;;7.57;2.67;;;;;;;;;;5032409;28;20048;-67
2024/01/26 00:26:57;;;;;;;17.47;2.93;;;;;;;;;;5032544;28;20029;-68
2024/01/26 00:29:22;;;;;;;17.23;4.70;;;;;;;;;;5032195;28;20112;-68
2024/01/26 00:31:48;;;;;;;14.67;3.27;;;;;;;;;;5032869;28;20056;-68
2024/01/26 00:34:14;;;;;;;12.00;3.67;;;;;;;;;;5033393;28;20033;-68
2024/01/26 00:36:39;;;;;;;15.07;3.67;;;;;;;;;;5035359;28;20067;-69
2024/01/26 00:39:06;;;;;;;14.90;3.83;;;;;;;;;;5033645;28;20405;-67
2024/01/26 00:41:32;;;;;;;9.90;3.77;;;;;;;;;;5033047;28;20100;-67
2024/01/26 00:43:58;;;;;;;9.10;3.17;;;;;;;;;;5034231;28;20083;-68
2024/01/26 00:46:23;;;;;;;12.20;3.40;;;;;;;;;;5033257;28;20044;-68
2024/01/26 00:48:49;;;;;;;8.83;3.13;;;;;;;;;;5030757;28;20030;-71
2024/01/26 00:51:14;;;;;;;14.87;2.87;;;;;;;;;;5030554;28;20381;-67
2024/01/26 00:53:40;;;;;;;9.97;2.70;;;;;;;;;;5030234;28;20531;-69
2024/01/26 00:56:06;;;;;;;8.33;3.30;;;;;;;;;;5031292;28;20030;-68
2024/01/26 00:58:31;;;;;;;13.90;4.03;;;;;;;;;;5031491;28;20021;-68
2024/01/26 01:00:57;;;;;;;10.93;3.40;;;;;;;;;;5030069;28;20397;-69
2024/01/26 01:03:23;;;;;;;18.50;3.87;;;;;;;;;;5029956;28;20048;-71
2024/01/26 01:05:49;;;;;;;11.10;2.70;;;;;;;;;;5031196;28;20037;-67
2024/01/26 01:08:15;;;;;;;14.70;3.97;;;;;;;;;;5031100;28;20028;-69
2024/01/26 01:10:41;;;;;;;9.80;3.63;;;;;;;;;;5029472;28;20061;-71
2024/01/26 01:13:10;;;;;;;16.57;3.77;;;;;;;;;;5030960;28;20045;-71
2024/01/26 01:15:37;;;;;;;18.50;4.60;;;;;;;;;;5029583;28;20067;-67
2024/01/26 01:18:03;;;;;;;19.80;5.10;;;;;;;;;;5029364;28;20396;-67
2024/01/26 01:20:30;;;;;;;16.63;3.97;;;;;;;;;;5029723;28;20116;-67
2024/01/26 01:22:58;;;;;;;12.80;4.13;;;;;;;;;;5031013;28;20029;-68
2024/01/26 01:25:25;;;;;;;11.37;4.27;;;;;;;;;;5029573;28;20527;-68
2024/01/26 01:27:51;;;;;;;13.17;4.70;;;;;;;;;;5029395;28;20033;-69
2024/01/26 01:30:16;;;;;;;14.57;4.50;;;;;;;;;;5030855;28;20056;-68
2024/01/26 01:32:42;;;;;;;11.77;4.30;;;;;;;;;;5029023;28;20565;-67
2024/01/26 01:35:08;;;;;;;13.17;4.47;;;;;;;;;;5029177;28;20037;-69
2024/01/26 01:37:33;;;;;;;15.17;3.90;;;;;;;;;;5030504;28;20532;-67
2024/01/26 01:39:59;;;;;;;19.53;5.87;;;;;;;;;;5029037;28;20462;-67
2024/01/26 01:42:25;;;;;;;15.07;4.57;;;;;;;;;;5029073;28;20091;-67
2024/01/26 01:44:51;;;;;;;14.77;4.20;;;;;;;;;;5030565;28;20033;-68
2024/01/26 01:47:17;;;;;;;17.73;4.93;;;;;;;;;;5012782;28;20515;-67
2024/01/26 01:49:43;;;;;;;24.60;5.00;;;;;;;;;;5030667;28;20116;-68
2024/01/26 01:52:13;;;;;;;11.53;4.70;;;;;;;;;;5029991;28;20079;-68
2024/01/26 01:54:40;;;;;;;17.00;4.30;;;;;;;;;;5029140;28;20119;-67
2024/01/26 01:57:06;;;;;;;17.43;4.43;;;;;;;;;;5029993;28;20033;-69
2024/01/26 01:59:32;;;;;;;17.23;4.40;;;;;;;;;;5029075;28;20022;-68
2024/01/26 02:01:57;;;;;;;12.77;4.30;;;;;;;;;;5028875;28;20071;-68
2024/01/26 02:04:23;;;;;;;18.10;5.07;;;;;;;;;;5030099;28;20470;-67
2024/01/26 02:06:56;;;;;;;17.43;4.60;;;;;;;;;;5028750;28;20034;-67
2024/01/26 02:09:22;;;;;;;14.43;4.57;;;;;;;;;;5030097;28;20021;-67
2024/01/26 02:11:48;;;;;;;18.50;4.33;;;;;;;;;;5028467;28;20111;-67
2024/01/26 02:14:14;;;;;;;20.13;5.23;;;;;;;;;;5030061;28;20496;-67
2024/01/26 02:16:40;;;;;;;17.17;5.37;;;;;;;;;;5029989;28;20029;-66
2024/01/26 02:19:05;;;;;;;16.00;4.77;;;;;;;;;;5029781;28;20059;-67
2024/01/26 02:21:32;;;;;;;17.23;4.33;;;;;;;;;;5028832;28;20112;-66
2024/01/26 02:23:58;;;;;;;22.50;4.83;;;;;;;;;;5029081;28;20025;-67
2024/01/26 02:26:23;;;;;;;13.93;4.47;;;;;;;;;;5028958;28;20094;-66
2024/01/26 02:28:49;;;;;;;26.20;5.93;;;;;;;;;;5028761;28;20333;-68
2024/01/26 02:31:15;;;;;;;15.33;4.90;;;;;;;;;;5028531;28;20104;-67
2024/01/26 02:33:41;;;;;;;24.87;5.17;;;;;;;;;;5028877;28;20036;-68
2024/01/26 02:36:08;;;;;;;10.63;3.90;;;;;;;;;;5028333;28;20036;-68
2024/01/26 02:38:34;;;;;;;15.37;4.07;;;;;;;;;;5028388;28;20124;-68
2024/01/26 02:40:59;;;;;;;11.67;4.53;;;;;;;;;;5028294;28;20176;-68
2024/01/26 02:43:25;;;;;;;10.03;4.33;;;;;;;;;;5028599;28;20029;-67
2024/01/26 02:45:50;;;;;;;14.77;4.67;;;;;;;;;;5032015;28;20053;-67
2024/01/26 02:48:23;;;;;;;32.77;5.47;;;;;;;;;;5031981;28;20037;-67
2024/01/26 02:50:48;;;;;;;15.57;5.20;;;;;;;;;;5032198;28;20099;-68
2024/01/26 02:53:14;;;;;;;14.87;4.37;;;;;;;;;;5032103;28;20037;-68
2024/01/26 02:55:39;;;;;;;17.13;4.90;;;;;;;;;;5032401;28;20033;-70
2024/01/26 02:58:05;;;;;;;19.53;4.73;;;;;;;;;;5032116;28;20033;-68
2024/01/26 03:00:31;;;;;;;13.93;4.27;;;;;;;;;;5033408;28;20028;-68
2024/01/26 03:02:56;;;;;;;15.13;4.47;;;;;;;;;;5031980;28;20117;-71
2024/01/26 03:05:22;;;;;;;16.57;6.97;;;;;;;;;;5032122;28;20052;-67
2024/01/26 03:07:47;;;;;;;18.80;5.80;;;;;;;;;;5032367;28;20025;-66
2024/01/26 03:10:13;;;;;;;22.17;5.13;;;;;;;;;;5031926;28;20107;-68
2024/01/26 03:12:39;;;;;;;17.43;5.00;;;;;;;;;;5032461;28;20511;-65
2024/01/26 03:15:05;;;;;;;19.40;5.50;;;;;;;;;;5032224;28;20029;-68
2024/01/26 03:17:30;;;;;;;14.57;4.77;;;;;;;;;;5034793;28;20553;-68
2024/01/26 03:19:57;;;;;;;13.70;4.37;;;;;;;;;;5032347;28;20390;-68
2024/01/26 03:22:23;;;;;;;18.10;4.63;;;;;;;;;;5032518;28;20025;-66
2024/01/26 03:24:49;;;;;;;16.53;5.13;;;;;;;;;;5032141;28;20527;-66
2024/01/26 03:27:14;;;;;;;18.33;5.00;;;;;;;;;;5033265;28;20401;-67
2024/01/26 03:29:40;;;;;;;19.80;6.03;;;;;;;;;;5033055;28;20596;-68
2024/01/26 03:32:06;;;;;;;18.23;5.50;;;;;;;;;;5031859;28;20075;-69
2024/01/26 03:34:31;;;;;;;15.17;4.37;;;;;;;;;;5033103;28;20432;-66
2024/01/26 03:36:57;;;;;;;21.50;4.77;;;;;;;;;;5033180;28;20033;-68
2024/01/26 03:39:23;;;;;;;19.83;4.73;;;;;;;;;;5031776;28;20075;-68
2024/01/26 03:41:49;;;;;;;12.23;4.70;;;;;;;;;;5032344;28;20040;-67
2024/01/26 03:44:15;;;;;;;20.70;4.77;;;;;;;;;;5031947;28;20025;-67
2024/01/26 03:46:42;;;;;;;16.47;5.90;;;;;;;;;;5032422;28;20134;-66
2024/01/26 03:49:09;;;;;;;23.07;5.90;;;;;;;;;;5032247;28;20043;-67
2024/01/26 03:51:36;;;;;;;26.23;6.70;;;;;;;;;;5031507;28;20037;-67
2024/01/26 03:54:01;;;;;;;16.57;5.63;;;;;;;;;;5032685;28;20025;-67
2024/01/26 03:56:27;;;;;;;32.43;6.30;;;;;;;;;;5031271;28;20034;-67
2024/01/26 03:58:53;;;;;;;25.83;5.63;;;;;;;;;;5032423;28;20469;-67
2024/01/26 04:01:19;;;;;;;16.90;4.97;;;;;;;;;;5030732;28;20068;-67
2024/01/26 04:03:45;;;;;;;35.97;6.63;;;;;;;;;;5032308;28;20071;-67
2024/01/26 04:06:10;;;;;;;13.37;4.83;;;;;;;;;;5032604;28;20445;-68
2024/01/26 04:08:36;;;;;;;21.33;5.40;;;;;;;;;;5031566;28;20029;-68
2024/01/26 04:11:02;;;;;;;19.30;5.90;;;;;;;;;;5031557;28;20072;-68
2024/01/26 04:13:28;;;;;;;22.10;5.23;;;;;;;;;;5030771;28;20033;-68
2024/01/26 04:15:55;;;;;;;14.47;4.50;;;;;;;;;;5032027;28;20044;-67
2024/01/26 04:18:20;;;;;;;15.87;6.23;;;;;;;;;;5031983;28;20302;-67
2024/01/26 04:20:49;;;;;;;15.87;5.20;;;;;;;;;;5031947;28;20385;-67
2024/01/26 04:23:15;;;;;;;22.77;5.00;;;;;;;;;;5032057;28;20033;-66
2024/01/26 04:25:41;;;;;;;20.03;5.53;;;;;;;;;;5030581;28;20029;-68
2024/01/26 04:28:07;;;;;;;14.03;4.83;;;;;;;;;;5030519;28;20036;-67
2024/01/26 04:30:34;;;;;;;17.03;4.57;;;;;;;;;;5014038;28;20033;-68
2024/01/26 04:33:00;;;;;;;14.37;5.47;;;;;;;;;;5014316;28;20033;-67
2024/01/26 04:35:26;;;;;;;15.93;4.40;;;;;;;;;;5031590;28;20080;-68
2024/01/26 04:37:52;;;;;;;20.67;4.93;;;;;;;;;;5031979;28;20461;-69
2024/01/26 04:40:18;;;;;;;13.20;4.83;;;;;;;;;;5032475;28;20283;-67
2024/01/26 04:42:44;;;;;;;19.20;4.63;;;;;;;;;;5031530;28;20522;-68
2024/01/26 04:45:10;;;;;;;18.90;4.43;;;;;;;;;;5031402;28;20067;-69
2024/01/26 04:47:37;;;;;;;18.10;5.30;;;;;;;;;;5031524;28;20469;-68
2024/01/26 04:50:03;;;;;;;17.33;5.17;;;;;;;;;;5031018;28;20029;-71
2024/01/26 04:52:29;;;;;;;17.50;4.80;;;;;;;;;;5030613;28;20040;-67
2024/01/26 04:54:54;;;;;;;16.47;5.50;;;;;;;;;;5029982;28;20391;-67
2024/01/26 04:57:20;;;;;;;15.13;4.60;;;;;;;;;;5030153;28;20033;-68
2024/01/26 04:59:46;;;;;;;14.33;4.50;;;;;;;;;;5031405;28;20040;-66
2024/01/26 05:02:12;;;;;;;15.07;4.70;;;;;;;;;;5031230;28;20029;-68
2024/01/26 05:04:37;;;;;;;20.50;5.63;;;;;;;;;;5030008;28;20547;-67
2024/01/26 05:07:03;;;;;;;21.33;5.13;;;;;;;;;;5029073;28;20048;-67
2024/01/26 05:09:29;;;;;;;14.83;4.80;;;;;;;;;;5031281;28;20037;-69
2024/01/26 05:11:55;;;;;;;16.37;5.23;;;;;;;;;;5030874;28;20077;-67
2024/01/26 05:14:22;;;;;;;17.07;6.33;;;;;;;;;;5030752;28;20493;-68
2024/01/26 05:16:48;;;;;;;22.67;5.47;;;;;;;;;;5030890;28;20358;-67
2024/01/26 05:19:14;;;;;;;13.13;4.77;;;;;;;;;;5029601;28;20044;-67
2024/01/26 05:21:41;;;;;;;18.77;9.73;;;;;;;;;;5029708;28;20025;-67
2024/01/26 05:24:07;;;;;;;19.37;7.20;;;;;;;;;;5012983;28;20120;-69
2024/01/26 05:26:36;;;;;;;21.83;5.83;;;;;;;;;;5029131;28;20152;-68
2024/01/26 05:29:02;;;;;;;20.23;4.80;;;;;;;;;;5030778;28;20033;-67
2024/01/26 05:31:27;;;;;;;18.23;5.60;;;;;;;;;;5030573;28;20484;-66
2024/01/26 05:33:53;;;;;;;15.20;4.90;;;;;;;;;;5030988;28;20044;-68
2024/01/26 05:36:19;;;;;;;18.97;4.93;;;;;;;;;;5029470;28;20071;-68
2024/01/26 05:38:46;;;;;;;25.57;7.80;;;;;;;;;;5029371;28;20029;-68
2024/01/26 05:41:12;;;;;;;16.43;6.67;;;;;;;;;;5030306;28;20044;-68
2024/01/26 05:43:39;;;;;;;22.00;7.30;;;;;;;;;;5030473;28;20026;-67
2024/01/26 05:46:05;;;;;;;27.53;6.43;;;;;;;;;;5028761;28;20112;-67
2024/01/26 05:48:31;;;;;;;19.80;5.03;;;;;;;;;;5029023;28;20053;-67
2024/01/26 05:50:56;;;;;;;20.07;6.43;;;;;;;;;;5030407;28;20496;-69
2024/01/26 05:53:22;;;;;;;43.00;8.47;;;;;;;;;;5029487;28;20056;-67
2024/01/26 05:55:48;;;;;;;24.60;6.87;;;;;;;;;;5029079;28;20414;-70
2024/01/26 05:58:16;;;;;;;21.63;6.57;;;;;;;;;;5028752;28;20029;-68
2024/01/26 06:00:42;;;;;;;28.90;8.10;;;;;;;;;;5028606;28;20036;-65
2024/01/26 06:03:07;;;;;;;24.93;9.53;;;;;;;;;;5025926;28;20033;-67
2024/01/26 06:05:33;;;;;;;38.23;10.10;;;;;;;;;;5028620;28;20037;-70
2024/01/26 06:07:59;;;;;;;40.43;12.33;;;;;;;;;;5028529;28;20487;-67
2024/01/26 06:10:25;;;;;;;28.40;6.87;;;;;;;;;;5029031;28;20524;-68
2024/01/26 06:12:50;;;;;;;24.90;17.77;;;;;;;;;;5028620;28;20116;-69
2024/01/26 06:15:16;;;;;;;26.53;11.50;;;;;;;;;;5023733;28;20520;-70
2024/01/26 06:17:42;;;;;;;16.63;7.07;;;;;;;;;;5025000;28;20041;-69
2024/01/26 06:20:09;;;;;;;29.83;7.13;;;;;;;;;;5013181;28;20034;-72
2024/01/26 06:22:34;;;;;;;23.30;6.30;;;;;;;;;;5013599;28;20034;-71
2024/01/26 06:25:00;;;;;;;17.93;6.20;;;;;;;;;;5019963;28;20033;-69
2024/01/26 06:27:26;;;;;;;21.33;6.13;;;;;;;;;;5030369;28;20029;-69
2024/01/26 06:29:51;;;;;;;16.50;5.70;;;;;;;;;;5024152;28;20026;-69
2024/01/26 06:32:19;;;;;;;17.37;5.03;;;;;;;;;;5010441;28;20076;-69
2024/01/26 06:34:45;;;;;;;26.03;6.43;;;;;;;;;;5014075;28;20037;-68
2024/01/26 06:37:11;;;;;;;19.20;6.10;;;;;;;;;;5009348;28;20482;-67
2024/01/26 06:39:37;;;;;;;22.17;5.40;;;;;;;;;;5016437;28;20030;-69
2024/01/26 06:42:03;;;;;;;19.33;5.60;;;;;;;;;;5029062;28;20021;-68
2024/01/26 06:44:29;;;;;;;19.63;5.70;;;;;;;;;;5024940;28;20556;-68
2024/01/26 06:46:55;;;;;;;21.23;6.83;;;;;;;;;;5009544;28;20069;-70
2024/01/26 06:49:21;;;;;;;18.17;5.27;;;;;;;;;;5020235;28;20321;-68
2024/01/26 06:51:47;;;;;;;21.20;5.33;;;;;;;;;;5012859;28;20513;-69
2024/01/26 06:54:12;;;;;;;22.63;5.37;;;;;;;;;;5020799;28;20021;-67
2024/01/26 06:56:38;;;;;;;22.70;5.67;;;;;;;;;;5030948;28;20049;-67
2024/01/26 06:59:04;;;;;;;21.50;5.87;;;;;;;;;;5021121;28;20489;-69
2024/01/26 07:01:30;;;;;;;21.60;5.90;;;;;;;;;;5020143;28;20040;-71
2024/01/26 07:03:56;;;;;;;21.43;5.83;;;;;;;;;;5033608;28;20034;-71
2024/01/26 07:06:21;;;;;;;24.13;4.97;;;;;;;;;;5014770;28;20037;-70
2024/01/26 07:08:47;;;;;;;26.00;6.07;;;;;;;;;;5011391;28;20296;-72
2024/01/26 07:11:14;;;;;;;18.37;7.10;;;;;;;;;;5014875;28;20060;-70
2024/01/26 07:13:39;;;;;;;29.53;6.13;;;;;;;;;;5009083;28;20040;-68
2024/01/26 07:16:05;;;;;;;12.10;5.10;;;;;;;;;;5023172;28;20033;-70
2024/01/26 07:18:32;;;;;;;27.17;6.47;;;;;;;;;;5020539;28;20046;-69
2024/01/26 07:20:58;;;;;;;21.23;6.93;;;;;;;;;;5022676;28;20029;-69
2024/01/26 07:23:23;;;;;;;17.57;6.03;;;;;;;;;;5025646;28;20474;-71
2024/01/26 07:25:49;;;;;;;25.13;6.80;;;;;;;;;;5019392;28;20048;-71
2024/01/26 07:28:14;;;;;;;24.80;6.70;;;;;;;;;;5019633;28;20025;-69
2024/01/26 07:30:40;;;;;;;18.47;6.70;;;;;;;;;;5022093;28;20413;-71
2024/01/26 07:33:06;;;;;;;24.03;6.83;;;;;;;;;;5022237;28;20121;-69
2024/01/26 07:35:31;;;;;;;25.27;6.37;;;;;;;;;;5025009;28;20036;-68
2024/01/26 07:37:57;;;;;;;20.03;5.83;;;;;;;;;;5026249;28;20780;-68
2024/01/26 07:40:23;;;;;;;17.20;5.73;;;;;;;;;;5020028;28;20026;-70
2024/01/26 07:42:49;;;;;;;25.90;5.53;;;;;;;;;;5021190;28;20096;-70
2024/01/26 07:45:14;;;;;;;25.50;7.37;;;;;;;;;;5015844;28;20501;-70
2024/01/26 07:47:40;;;;;;;19.40;6.33;;;;;;;;;;5019586;28;20029;-68
2024/01/26 07:50:07;;;;;;;16.50;6.30;;;;;;;;;;5017259;28;20061;-69
2024/01/26 07:52:32;;;;;;;32.70;7.07;;;;;;;;;;5035713;28;20033;-69
2024/01/26 07:54:59;;;;;;;21.40;6.07;;;;;;;;;;5028180;28;20345;-69
2024/01/26 07:57:26;;;;;;;17.53;6.93;;;;;;;;;;5021057;28;20060;-70
2024/01/26 07:59:53;;;;;;;26.67;6.80;;;;;;;;;;5024149;28;20163;-69
2024/01/26 08:02:18;;;;;;;25.33;7.13;;;;;;;;;;5020657;28;20032;-69
2024/01/26 08:04:44;;;;;;;27.63;8.10;;;;;;;;;;5029459;28;20032;-72
2024/01/26 08:07:10;;;;;;;27.30;7.10;;;;;;;;;;5020187;28;20366;-72
2024/01/26 08:09:35;;;;;;;27.43;8.33;;;;;;;;;;5023674;28;20434;-69
2024/01/26 08:12:01;;;;;;;30.43;8.37;;;;;;;;;;5032060;28;20052;-69
2024/01/26 08:14:27;;;;;;;20.87;6.30;;;;;;;;;;5024408;28;20025;-67
2024/01/26 08:16:52;;;;;;;24.33;6.63;;;;;;;;;;5026971;28;20390;-68
2024/01/26 08:19:18;;;;;;;24.43;6.97;;;;;;;;;;5021233;28;20088;-71
2024/01/26 08:21:43;;;;;;;28.83;9.63;;;;;;;;;;5025760;28;20541;-67
2024/01/26 08:24:09;;;;;;;19.87;6.93;;;;;;;;;;5021804;28;20030;-70
2024/01/26 08:26:35;;;;;;;24.93;6.77;;;;;;;;;;5022255;28;20124;-70
2024/01/26 08:29:01;;;;;;;24.30;6.47;;;;;;;;;;5023989;28;20087;-70
2024/01/26 08:31:29;;;;;;;39.93;9.53;;;;;;;;;;5020195;28;20069;-70
2024/01/26 08:33:55;;;;;;;32.03;7.43;;;;;;;;;;5021262;28;20029;-70
2024/01/26 08:36:21;;;;;;;21.90;5.93;;;;;;;;;;5019299;28;20060;-69
2024/01/26 08:38:50;;;;;;;23.27;6.37;;;;;;;;;;5022682;28;20038;-70
2024/01/26 08:41:17;;;;;;;23.40;6.27;;;;;;;;;;5020311;28;20045;-73
2024/01/26 08:43:43;;;;;;;28.17;6.57;;;;;;;;;;5018560;28;20025;-69
2024/01/26 08:46:10;;;;;;;28.03;7.57;;;;;;;;;;5023005;28;20034;-70
2024/01/26 08:48:35;;;;;;;20.87;6.57;;;;;;;;;;5030934;28;20065;-71
2024/01/26 08:51:02;;;;;;;20.90;7.73;;;;;;;;;;5028169;28;20038;-71
2024/01/26 08:53:28;;;;;;;28.47;7.27;;;;;;;;;;5022362;28;20026;-72
2024/01/26 08:55:53;;;;;;;20.03;6.47;;;;;;;;;;5023188;28;20025;-70
2024/01/26 08:58:19;;;;;;;13.97;7.23;;;;;;;;;;5019096;28;20045;-73
2024/01/26 09:00:45;;;;;;;20.00;6.40;;;;;;;;;;5018952;28;20033;-72
2024/01/26 09:03:14;;;;;;;22.73;7.47;;;;;;;;;;5016354;28;20033;-72
2024/01/26 09:05:39;;;;;;;17.30;5.83;;;;;;;;;;5023902;28;20405;-71
2024/01/26 09:08:05;;;;;;;29.13;8.43;;;;;;;;;;5020104;28;20049;-70
2024/01/26 09:10:31;;;;;;;29.47;8.93;;;;;;;;;;5014486;28;20053;-73
2024/01/26 09:12:56;;;;;;;32.07;6.93;;;;;;;;;;5018525;28;20605;-69
2024/01/26 09:15:22;;;;;;;22.87;7.23;;;;;;;;;;5020104;28;20041;-71
2024/01/26 09:17:47;;;;;;;22.67;7.90;;;;;;;;;;5017421;28;20033;-69
2024/01/26 09:20:14;;;;;;;21.80;7.30;;;;;;;;;;5013050;28;20030;-71
2024/01/26 09:22:39;;;;;;;22.58;6.93;;;;;;;;;;5019048;28;20108;-72
2024/01/26 09:25:05;;;;;;;21.48;6.70;;;;;;;;;;5026460;28;20430;-69
2024/01/26 09:27:31;;;;;;;24.07;7.37;;;;;;;;;;5021555;28;20064;-68
2024/01/26 09:29:56;;;;;;;21.27;6.18;;;;;;;;;;5026246;28;20061;-69
2024/01/26 09:32:22;;;;;;;20.42;6.22;;;;;;;;;;5019125;28;20030;-71
2024/01/26 09:34:48;;;;;;;17.08;6.30;;;;;;;;;;5011386;28;20343;-69
2024/01/26 09:37:13;;;;;;;14.77;5.07;;;;;;;;;;5016365;28;20032;-70
2024/01/26 09:39:39;;;;;;;19.42;6.32;;;;;;;;;;5025838;28;20187;-71
2024/01/26 09:42:05;;;;;;;18.45;5.85;;;;;;;;;;5022077;28;20025;-69
2024/01/26 09:44:31;;;;;;;16.73;6.70;;;;;;;;;;5018700;28;20041;-68
2024/01/26 09:46:58;;;;;;;24.13;6.63;;;;;;;;;;5019748;28;20037;-69
2024/01/26 09:49:27;;;;;;;14.63;5.97;;;;;;;;;;5015265;28;20037;-70
2024/01/26 09:51:52;;;;;;;17.05;7.00;;;;;;;;;;4999733;28;20029;-68
2024/01/26 09:54:21;;;;;;;18.02;5.70;;;;;;;;;;5018813;28;20032;-73
2024/01/26 09:56:48;;;;;;;18.00;7.20;;;;;;;;;;5026047;28;20041;-70
2024/01/26 09:59:14;;;;;;;21.02;7.40;;;;;;;;;;5025700;28;21668;-71
2024/01/26 10:01:42;;;;;;;29.83;7.90;;;;;;;;;;5014154;28;20037;-70
2024/01/26 10:04:08;;;;;;;16.65;6.05;;;;;;;;;;5019924;28;20032;-70
2024/01/26 10:06:33;;;;;;;23.02;5.97;;;;;;;;;;5020686;28;20030;-70
2024/01/26 10:08:59;;;;;;;17.05;5.75;;;;;;;;;;5020280;28;20061;-70
2024/01/26 10:11:25;;;;;;;22.52;6.10;;;;;;;;;;5021833;28;20041;-70
2024/01/26 10:13:50;;;;;;;27.58;6.68;;;;;;;;;;5019990;28;20032;-68
2024/01/26 10:16:16;;;;;;;14.27;6.13;;;;;;;;;;5017951;28;20044;-68
2024/01/26 10:18:43;;;;;;;18.85;5.07;;;;;;;;;;5021918;28;20028;-70
2024/01/26 10:21:14;;;;;;;8.55;4.65;;;;;;;;;;5015653;28;20046;-71
2024/01/26 10:23:41;;;;;;;16.10;5.50;;;;;;;;;;5016490;28;20036;-72
2024/01/26 10:26:07;;;;;;;17.88;5.30;;;;;;;;;;5011979;28;20037;-72
2024/01/26 10:28:33;;;;;;;20.75;5.55;;;;;;;;;;5025306;28;20029;-74
2024/01/26 10:31:00;;;;;;;15.77;5.72;;;;;;;;;;5025175;28;20032;-69
2024/01/26 10:33:25;;;;;;;17.83;5.25;;;;;;;;;;5028101;28;20021;-69
2024/01/26 10:35:59;;;;;;;20.55;6.47;;;;;;;;;;5023988;28;20556;-69
2024/01/26 10:38:25;;;;;;;10.88;4.35;;;;;;;;;;5013231;28;20044;-68
2024/01/26 10:40:59;;;;;;;9.77;4.30;;;;;;;;;;5024342;28;20021;-70
2024/01/26 10:43:25;;;;;;;11.07;3.78;;;;;;;;;;5024367;28;20045;-68
2024/01/26 10:45:51;;;;;;;9.80;4.20;;;;;;;;;;5029216;28;20032;-69
2024/01/26 10:48:17;;;;;;;11.27;4.55;;;;;;;;;;5022707;28;20029;-67
2024/01/26 10:50:45;;;;;;;10.48;4.40;;;;;;;;;;5027618;28;20033;-69
2024/01/26 10:53:12;;;;;;;12.98;4.30;;;;;;;;;;5029254;28;20034;-68
2024/01/26 10:55:40;;;;;;;6.90;3.67;;;;;;;;;;5028722;28;20159;-68
2024/01/26 10:58:07;;;;;;;6.60;3.13;;;;;;;;;;5027028;28;20049;-70
2024/01/26 11:00:37;;;;;;;8.82;3.38;;;;;;;;;;5028231;28;20057;-68
2024/01/26 11:03:03;;;;;;;7.80;3.03;;;;;;;;;;5015709;28;20080;-68
2024/01/26 11:05:30;;;;;;;11.73;3.85;;;;;;;;;;5029375;28;20160;-70
2024/01/26 11:08:02;;;;;;;8.05;3.33;;;;;;;;;;5032738;28;20032;-69
2024/01/26 11:10:29;;;;;;;5.70;2.80;;;;;;;;;;5028655;28;20052;-68
2024/01/26 11:13:05;;;;;;;12.07;5.53;;;;;;;;;;5028044;28;20029;-69
2024/01/26 11:15:32;;;;;;;9.43;3.70;;;;;;;;;;5027076;28;20206;-70
2024/01/26 11:17:58;;;;;;;3.72;2.38;;;;;;;;;;5023332;28;20033;-68
2024/01/26 11:20:31;;;;;;;6.80;2.80;;;;;;;;;;5021546;28;20047;-70
2024/01/26 11:23:11;;;;;;;4.43;2.60;;;;;;;;;;5025988;28;20031;-69
2024/01/26 11:25:43;;;;;;;7.95;2.88;;;;;;;;;;5031845;28;20036;-68
2024/01/26 11:28:09;;;;;;;4.95;2.67;;;;;;;;;;5029938;28;20064;-69
2024/01/26 11:30:36;;;;;;;4.18;3.00;;;;;;;;;;5036999;28;20181;-68
2024/01/26 11:33:02;;;;;;;7.28;2.83;;;;;;;;;;4996169;28;20124;-68
2024/01/26 11:35:28;;;;;;;10.20;2.78;;;;;;;;;;5013207;28;20041;-69
2024/01/26 11:37:56;;;;;;;6.15;2.75;;;;;;;;;;5024265;28;20036;-70
2024/01/26 11:40:25;;;;;;;8.48;2.90;;;;;;;;;;5029846;28;20420;-70
2024/01/26 11:42:52;;;;;;;5.10;2.47;;;;;;;;;;5022170;28;20034;-69
2024/01/26 11:45:43;;;;;;;3.67;2.50;;;;;;;;;;5022507;28;20387;-70
2024/01/26 11:48:10;;;;;;;4.28;2.22;;;;;;;;;;5020643;28;20059;-70
2024/01/26 11:50:37;;;;;;;5.55;2.65;;;;;;;;;;5007157;28;20121;-70
2024/01/26 11:53:04;;;;;;;2.10;1.70;;;;;;;;;;5040922;28;20052;-68
2024/01/26 11:55:30;;;;;;;4.00;2.00;;;;;;;;;;5030351;28;20536;-71
2024/01/26 11:57:56;;;;;;;3.22;2.03;;;;;;;;;;5008730;28;20042;-71
2024/01/26 12:00:22;;;;;;;6.97;2.05;;;;;;;;;;5021936;28;20033;-69
2024/01/26 12:02:48;;;;;;;3.47;2.05;;;;;;;;;;5017796;28;20472;-72
2024/01/26 12:05:16;;;;;;;3.80;1.92;;;;;;;;;;5025743;28;20033;-69
2024/01/26 12:07:42;;;;;;;1.38;1.27;;;;;;;;;;5027439;28;20450;-69
2024/01/26 12:10:14;;;;;;;1.98;1.42;;;;;;;;;;5030181;28;20064;-69
2024/01/26 12:12:41;;;;;;;2.88;1.88;;;;;;;;;;5029810;28;20040;-71
2024/01/26 12:15:08;;;;;;;3.42;1.40;;;;;;;;;;5028648;28;20037;-70
2024/01/26 12:17:34;;;;;;;1.98;1.75;;;;;;;;;;5029405;28;20037;-72
2024/01/26 12:20:08;;;;;;;4.13;1.80;;;;;;;;;;5024012;28;20030;-70
2024/01/26 12:22:34;;;;;;;3.15;1.67;;;;;;;;;;5014535;28;20053;-69
2024/01/26 12:25:05;;;;;;;1.58;1.48;;;;;;;;;;5044405;28;20049;-71
2024/01/26 12:27:31;;;;;;;1.48;1.30;;;;;;;;;;5026416;28;20032;-68
2024/01/26 12:29:56;;;;;;;1.88;1.50;;;;;;;;;;5022500;28;20120;-68
2024/01/26 12:32:22;;;;;;;2.20;1.50;;;;;;;;;;5028227;28;20162;-69
2024/01/26 12:34:47;;;;;;;2.30;1.35;;;;;;;;;;5031138;28;20113;-69
2024/01/26 12:37:14;;;;;;;5.13;1.70;;;;;;;;;;5015185;28;20042;-70
2024/01/26 12:39:40;;;;;;;1.52;1.33;;;;;;;;;;5019145;28;20141;-71
2024/01/26 12:42:06;;;;;;;1.65;1.55;;;;;;;;;;5032980;28;20108;-70
2024/01/26 12:44:33;;;;;;;2.10;1.20;;;;;;;;;;5024070;28;20112;-69
2024/01/26 12:47:00;;;;;;;2.00;1.80;;;;;;;;;;5027607;28;20048;-68
2024/01/26 12:49:26;;;;;;;5.60;1.50;;;;;;;;;;5022598;28;20336;-72
2024/01/26 12:51:54;;;;;;;2.55;1.50;;;;;;;;;;5028546;28;20021;-68
2024/01/26 12:54:20;;;;;;;1.60;1.50;;;;;;;;;;5030570;28;20079;-69
2024/01/26 12:56:47;;;;;;;4.05;1.52;;;;;;;;;;5029242;28;20060;-70
2024/01/26 12:59:13;;;;;;;4.82;1.90;;;;;;;;;;5037254;28;20138;-70
2024/01/26 13:01:42;;;;;;;3.03;1.30;;;;;;;;;;5025391;28;20026;-68
2024/01/26 13:04:08;;;;;;;1.80;1.45;;;;;;;;;;5010233;28;20393;-74
2024/01/26 13:06:38;;;;;;;4.82;1.60;;;;;;;;;;5013418;28;20084;-70
2024/01/26 13:09:06;;;;;;;3.42;1.92;;;;;;;;;;5014595;28;20125;-67
2024/01/26 13:11:35;;;;;;;4.30;1.83;;;;;;;;;;5017365;28;20086;-70
2024/01/26 13:14:06;;;;;;;2.00;1.60;;;;;;;;;;5018476;28;20033;-70
2024/01/26 13:16:33;;;;;;;1.85;1.60;;;;;;;;;;5020402;28;20030;-69
2024/01/26 13:18:58;;;;;;;2.05;1.50;;;;;;;;;;5021766;28;20029;-74
2024/01/26 13:21:24;;;;;;;4.80;1.65;;;;;;;;;;5019446;28;20564;-69
2024/01/26 13:23:50;;;;;;;5.53;1.75;;;;;;;;;;5020022;28;20096;-69
2024/01/26 13:26:16;;;;;;;1.67;1.45;;;;;;;;;;5020593;28;20117;-68
2024/01/26 13:28:43;;;;;;;2.03;1.52;;;;;;;;;;5024691;28;20040;-68
2024/01/26 13:31:09;;;;;;;4.93;1.98;;;;;;;;;;5018013;28;20029;-71
2024/01/26 13:33:35;;;;;;;2.80;2.20;;;;;;;;;;5018685;28;20061;-71
2024/01/26 13:36:02;;;;;;;4.97;2.10;;;;;;;;;;5021627;28;20110;-69
2024/01/26 13:38:30;;;;;;;2.92;1.60;;;;;;;;;;5013332;28;20750;-69
2024/01/26 13:40:56;;;;;;;1.60;1.50;;;;;;;;;;5022386;28;20036;-70
2024/01/26 13:43:23;;;;;;;1.92;1.73;;;;;;;;;;5014971;28;20044;-69
2024/01/26 13:45:48;;;;;;;4.43;2.38;;;;;;;;;;5018225;28;20096;-68
2024/01/26 13:48:14;;;;;;;3.75;2.00;;;;;;;;;;5020987;28;20184;-70
2024/01/26 13:50:40;;;;;;;3.63;2.10;;;;;;;;;;5015708;28;20034;-71
2024/01/26 13:53:06;;;;;;;5.47;1.92;;;;;;;;;;5020981;28;20049;-69
2024/01/26 13:55:33;;;;;;;5.47;2.10;;;;;;;;;;5020924;28;20021;-69
2024/01/26 13:57:59;;;;;;;3.67;2.50;;;;;;;;;;5003517;28;20044;-71
2024/01/26 14:00:25;;;;;;;5.68;2.92;;;;;;;;;;5020459;28;20033;-70
2024/01/26 14:02:50;;;;;;;4.68;2.28;;;;;;;;;;5020378;28;20030;-69
2024/01/26 14:05:17;;;;;;;3.65;1.90;;;;;;;;;;5016378;28;20033;-69
2024/01/26 14:07:43;;;;;;;3.50;1.95;;;;;;;;;;5012554;28;20038;-70
2024/01/26 14:10:11;;;;;;;3.05;2.22;;;;;;;;;;5020258;28;20045;-72
2024/01/26 14:12:38;;;;;;;4.85;2.70;;;;;;;;;;5020027;28;20084;-69
2024/01/26 14:15:04;;;;;;;5.40;2.90;;;;;;;;;;5012903;28;20021;-68
2024/01/26 14:17:30;;;;;;;4.25;2.20;;;;;;;;;;5024833;28;20061;-69
2024/01/26 14:19:56;;;;;;;7.47;2.40;;;;;;;;;;5011520;28;20040;-70
2024/01/26 14:22:21;;;;;;;4.93;2.45;;;;;;;;;;5025126;28;20121;-70
2024/01/26 14:24:47;;;;;;;3.28;2.58;;;;;;;;;;5021135;28;20029;-67
2024/01/26 14:27:12;;;;;;;8.75;3.08;;;;;;;;;;5028478;28;20040;-68